createdAt,value
2017-05-28T00:00:51.317Z,38
2017-05-28T00:01:59.402Z,38
2017-05-28T00:03:07.491Z,38
2017-05-28T00:04:15.580Z,38
2017-05-28T00:05:23.690Z,38
2017-05-28T00:06:31.754Z,38
2017-05-28T00:07:39.840Z,38
2017-05-28T00:08:47.958Z,38
2017-05-28T00:09:56.013Z,38
2017-05-28T00:11:04.127Z,38
2017-05-28T00:12:12.187Z,38
2017-05-28T00:13:20.276Z,38
2017-05-28T00:14:28.361Z,38
2017-05-28T00:15:36.448Z,38
2017-05-28T00:16:44.535Z,38
2017-05-28T00:17:52.622Z,38
2017-05-28T00:19:00.710Z,38
2017-05-28T00:20:08.796Z,38
2017-05-28T00:21:16.884Z,38
2017-05-28T00:22:24.972Z,38
2017-05-28T00:23:33.060Z,38
2017-05-28T00:24:41.151Z,38
2017-05-28T00:25:49.232Z,38
2017-05-28T00:26:57.320Z,38
2017-05-28T00:28:05.405Z,38
2017-05-28T00:29:13.492Z,38
2017-05-28T00:30:21.579Z,38
2017-05-28T00:31:29.666Z,38
2017-05-28T00:32:37.754Z,38
2017-05-28T00:33:45.840Z,38
2017-05-28T00:34:53.932Z,38
2017-05-28T00:36:02.013Z,38
2017-05-28T00:37:10.102Z,38
2017-05-28T00:38:18.186Z,38
2017-05-28T00:39:26.274Z,38
2017-05-28T00:40:34.362Z,38
2017-05-28T00:41:47.839Z,38
2017-05-28T00:42:50.536Z,38
2017-05-28T00:43:58.621Z,38
2017-05-28T00:45:06.709Z,38
2017-05-28T00:46:14.793Z,38
2017-05-28T00:47:22.880Z,38
2017-05-28T00:48:30.967Z,38
2017-05-28T00:49:39.053Z,38
2017-05-28T00:50:47.142Z,38
2017-05-28T00:51:55.226Z,38
2017-05-28T00:53:03.325Z,38
2017-05-28T00:54:11.407Z,38
2017-05-28T00:55:19.493Z,38
2017-05-28T00:56:27.638Z,38
2017-05-28T00:57:35.667Z,38
2017-05-28T00:58:43.756Z,38
2017-05-28T00:59:51.844Z,38
2017-05-28T01:00:59.928Z,38
2017-05-28T01:02:08.038Z,38
2017-05-28T01:03:16.101Z,38
2017-05-28T01:04:24.188Z,38
2017-05-28T01:05:32.275Z,38
2017-05-28T01:06:40.361Z,38
2017-05-28T01:07:48.448Z,38
2017-05-28T01:08:56.539Z,38
2017-05-28T01:10:04.628Z,38
2017-05-28T01:11:12.712Z,38
2017-05-28T01:12:20.798Z,38
2017-05-28T01:13:28.893Z,38
2017-05-28T01:14:36.969Z,38
2017-05-28T01:15:45.055Z,38
2017-05-28T01:16:53.142Z,38
2017-05-28T01:18:01.237Z,38
2017-05-28T01:19:09.321Z,38
2017-05-28T01:20:17.411Z,38
2017-05-28T01:21:25.496Z,38
2017-05-28T01:22:33.580Z,38
2017-05-28T01:23:41.664Z,38
2017-05-28T01:24:49.752Z,38
2017-05-28T01:25:57.839Z,38
2017-05-28T01:27:05.930Z,38
2017-05-28T01:28:14.019Z,38
2017-05-28T01:29:22.102Z,38
2017-05-28T01:30:30.196Z,38
2017-05-28T01:31:38.274Z,38
2017-05-28T01:32:46.368Z,38
2017-05-28T01:33:54.442Z,38
2017-05-28T01:35:02.533Z,38
2017-05-28T01:36:10.618Z,38
2017-05-28T01:37:18.703Z,38
2017-05-28T01:38:26.794Z,38
2017-05-28T01:39:34.885Z,38
2017-05-28T01:40:42.978Z,38
2017-05-28T01:41:51.069Z,38
2017-05-28T01:42:59.155Z,38
2017-05-28T01:44:07.241Z,38
2017-05-28T01:45:15.331Z,38
2017-05-28T01:46:23.415Z,38
2017-05-28T01:47:31.529Z,38
2017-05-28T01:48:39.587Z,38
2017-05-28T01:49:47.681Z,38
2017-05-28T01:50:55.766Z,38
2017-05-28T01:52:03.850Z,38
2017-05-28T01:53:11.938Z,39
2017-05-28T01:54:20.026Z,38
2017-05-28T01:55:28.113Z,38
2017-05-28T01:56:36.198Z,39
2017-05-28T01:57:44.282Z,38
2017-05-28T01:58:52.372Z,38
2017-05-28T02:00:00.455Z,39
2017-05-28T02:01:08.542Z,38
2017-05-28T02:02:16.628Z,38
2017-05-28T02:03:24.718Z,38
2017-05-28T02:04:32.801Z,38
2017-05-28T02:05:40.887Z,39
2017-05-28T02:06:48.975Z,39
2017-05-28T02:07:57.059Z,39
2017-05-28T02:09:05.147Z,39
2017-05-28T02:10:13.234Z,39
2017-05-28T02:11:21.328Z,39
2017-05-28T02:12:29.409Z,38
2017-05-28T02:13:37.492Z,38
2017-05-28T02:14:45.580Z,38
2017-05-28T02:15:53.665Z,39
2017-05-28T02:17:01.751Z,38
2017-05-28T02:18:09.835Z,39
2017-05-28T02:19:17.923Z,38
2017-05-28T02:20:26.009Z,39
2017-05-28T02:21:34.096Z,38
2017-05-28T02:22:42.182Z,39
2017-05-28T02:23:50.269Z,38
2017-05-28T02:24:58.357Z,38
2017-05-28T02:26:06.449Z,38
2017-05-28T02:27:14.535Z,38
2017-05-28T02:28:22.621Z,38
2017-05-28T02:29:30.710Z,38
2017-05-28T02:30:38.794Z,38
2017-05-28T02:31:46.881Z,38
2017-05-28T02:32:54.970Z,38
2017-05-28T02:34:03.053Z,38
2017-05-28T02:35:11.141Z,38
2017-05-28T02:36:19.238Z,38
2017-05-28T02:37:27.318Z,38
2017-05-28T02:38:35.404Z,38
2017-05-28T02:39:43.491Z,38
2017-05-28T02:40:51.576Z,38
2017-05-28T02:41:59.662Z,39
2017-05-28T02:43:07.744Z,38
2017-05-28T02:44:15.837Z,39
2017-05-28T02:45:23.921Z,38
2017-05-28T02:46:32.076Z,39
2017-05-28T02:47:40.094Z,38
2017-05-28T02:48:48.182Z,39
2017-05-28T02:49:56.266Z,39
2017-05-28T02:51:04.353Z,39
2017-05-28T02:52:12.436Z,39
2017-05-28T02:53:20.523Z,39
2017-05-28T02:54:28.609Z,39
2017-05-28T02:55:36.694Z,39
2017-05-28T02:56:44.780Z,39
2017-05-28T02:57:52.868Z,39
2017-05-28T02:59:00.952Z,38
2017-05-28T03:00:09.044Z,39
2017-05-28T03:01:17.128Z,39
2017-05-28T03:02:25.210Z,39
2017-05-28T03:03:33.395Z,39
2017-05-28T03:04:41.383Z,38
2017-05-28T03:05:49.472Z,39
2017-05-28T03:06:57.555Z,38
2017-05-28T03:08:05.641Z,38
2017-05-28T03:09:13.727Z,39
2017-05-28T03:10:21.814Z,39
2017-05-28T03:11:29.897Z,39
2017-05-28T03:12:37.983Z,38
2017-05-28T03:13:46.071Z,38
2017-05-28T03:14:54.158Z,39
2017-05-28T03:16:02.246Z,39
2017-05-28T03:17:10.331Z,39
2017-05-28T03:18:18.421Z,39
2017-05-28T03:19:26.506Z,39
2017-05-28T03:20:34.681Z,39
2017-05-28T03:21:42.677Z,39
2017-05-28T03:22:50.764Z,39
2017-05-28T03:23:58.852Z,39
2017-05-28T03:25:06.935Z,39
2017-05-28T03:26:15.022Z,39
2017-05-28T03:27:23.107Z,39
2017-05-28T03:28:31.199Z,39
2017-05-28T03:29:39.286Z,39
2017-05-28T03:30:47.368Z,39
2017-05-28T03:31:55.455Z,39
2017-05-28T03:33:03.544Z,39
2017-05-28T03:34:11.652Z,39
2017-05-28T03:35:19.714Z,39
2017-05-28T03:36:27.811Z,39
2017-05-28T03:37:35.895Z,39
2017-05-28T03:38:43.978Z,39
2017-05-28T03:39:52.065Z,39
2017-05-28T03:41:00.150Z,39
2017-05-28T03:42:08.236Z,39
2017-05-28T03:43:16.323Z,39
2017-05-28T03:44:24.408Z,39
2017-05-28T03:45:32.494Z,39
2017-05-28T03:46:40.581Z,39
2017-05-28T03:47:48.666Z,39
2017-05-28T03:48:56.751Z,39
2017-05-28T03:50:04.835Z,39
2017-05-28T03:51:12.923Z,39
2017-05-28T03:52:21.007Z,39
2017-05-28T03:53:29.093Z,39
2017-05-28T03:54:37.180Z,39
2017-05-28T03:55:45.265Z,39
2017-05-28T03:56:53.363Z,39
2017-05-28T03:58:01.439Z,39
2017-05-28T03:59:09.565Z,39
2017-05-28T04:00:17.607Z,39
2017-05-28T04:01:25.693Z,39
2017-05-28T04:02:33.786Z,39
2017-05-28T04:03:41.868Z,39
2017-05-28T04:04:49.956Z,39
2017-05-28T04:05:58.042Z,39
2017-05-28T04:07:06.125Z,39
2017-05-28T04:08:14.212Z,39
2017-05-28T04:09:22.296Z,39
2017-05-28T04:10:30.382Z,39
2017-05-28T04:11:38.474Z,39
2017-05-28T04:12:46.554Z,39
2017-05-28T04:13:54.641Z,39
2017-05-28T04:15:02.727Z,39
2017-05-28T04:16:10.815Z,39
2017-05-28T04:17:18.900Z,39
2017-05-28T04:18:26.983Z,39
2017-05-28T04:19:35.080Z,39
2017-05-28T04:20:43.154Z,39
2017-05-28T04:21:51.242Z,39
2017-05-28T04:22:59.330Z,39
2017-05-28T04:24:07.415Z,39
2017-05-28T04:25:15.509Z,39
2017-05-28T04:26:23.585Z,39
2017-05-28T04:27:31.671Z,39
2017-05-28T04:28:39.758Z,39
2017-05-28T04:29:47.849Z,39
2017-05-28T04:30:55.931Z,39
2017-05-28T04:32:04.016Z,39
2017-05-28T04:33:12.102Z,40
2017-05-28T04:34:20.193Z,39
2017-05-28T04:35:28.271Z,39
2017-05-28T04:36:36.359Z,39
2017-05-28T04:37:44.444Z,40
2017-05-28T04:38:52.535Z,39
2017-05-28T04:40:00.872Z,39
2017-05-28T04:41:08.703Z,39
2017-05-28T04:42:16.787Z,39
2017-05-28T04:43:24.871Z,40
2017-05-28T04:44:32.970Z,40
2017-05-28T04:45:41.045Z,40
2017-05-28T04:46:49.130Z,40
2017-05-28T04:47:57.217Z,40
2017-05-28T04:49:05.307Z,40
2017-05-28T04:50:13.395Z,40
2017-05-28T04:51:21.480Z,40
2017-05-28T04:52:29.567Z,40
2017-05-28T04:53:37.784Z,40
2017-05-28T04:54:45.740Z,41
2017-05-28T04:55:53.824Z,41
2017-05-28T04:57:01.910Z,40
2017-05-28T04:58:10.381Z,40
2017-05-28T04:59:18.084Z,40
2017-05-28T05:00:26.411Z,40
2017-05-28T05:01:34.280Z,40
2017-05-28T05:02:42.389Z,41
2017-05-28T05:03:50.568Z,40
2017-05-28T05:04:58.585Z,40
2017-05-28T05:06:06.623Z,40
2017-05-28T05:07:14.690Z,40
2017-05-28T05:08:22.777Z,40
2017-05-28T05:09:30.862Z,41
2017-05-28T05:10:38.992Z,41
2017-05-28T05:11:47.036Z,41
2017-05-28T05:12:55.419Z,41
2017-05-28T05:14:03.207Z,40
2017-05-28T05:15:11.926Z,40
2017-05-28T05:16:19.700Z,40
2017-05-28T05:17:27.580Z,40
2017-05-28T05:18:35.975Z,40
2017-05-28T05:19:44.280Z,40
2017-05-28T05:20:51.730Z,40
2017-05-28T05:21:59.811Z,40
2017-05-28T05:23:07.969Z,40
2017-05-28T05:24:15.984Z,40
2017-05-28T05:25:24.279Z,40
2017-05-28T05:26:32.299Z,40
2017-05-28T05:27:40.241Z,40
2017-05-28T05:28:48.328Z,40
2017-05-28T05:29:56.415Z,40
2017-05-28T05:31:04.507Z,40
2017-05-28T05:32:12.588Z,40
2017-05-28T05:33:20.680Z,40
2017-05-28T05:34:28.823Z,40
2017-05-28T05:35:36.851Z,40
2017-05-28T05:36:44.941Z,40
2017-05-28T05:37:53.024Z,40
2017-05-28T05:39:01.200Z,40
2017-05-28T05:40:09.197Z,40
2017-05-28T05:41:17.295Z,40
2017-05-28T05:42:25.449Z,40
2017-05-28T05:43:33.537Z,41
2017-05-28T05:44:41.624Z,41
2017-05-28T05:45:49.640Z,40
2017-05-28T05:46:58.378Z,40
2017-05-28T05:48:05.813Z,40
2017-05-28T05:49:13.899Z,40
2017-05-28T05:50:21.983Z,40
2017-05-28T05:51:30.071Z,40
2017-05-28T05:52:38.343Z,41
2017-05-28T05:53:46.647Z,41
2017-05-28T05:54:54.327Z,41
2017-05-28T05:56:03.100Z,41
2017-05-28T05:57:10.501Z,41
2017-05-28T05:58:18.656Z,40
2017-05-28T05:59:26.730Z,41
2017-05-28T06:00:35.012Z,41
2017-05-28T06:01:42.852Z,40
2017-05-28T06:02:51.036Z,40
2017-05-28T06:03:59.031Z,40
2017-05-28T06:05:07.108Z,41
2017-05-28T06:06:15.200Z,41
2017-05-28T06:07:23.281Z,41
2017-05-28T06:08:31.385Z,41
2017-05-28T06:09:39.452Z,40
2017-05-28T06:10:47.542Z,40
2017-05-28T06:11:55.913Z,41
2017-05-28T06:13:08.018Z,41
2017-05-28T06:14:11.987Z,41
2017-05-28T06:15:20.212Z,41
2017-05-28T06:16:28.076Z,41
2017-05-28T06:17:36.059Z,41
2017-05-28T06:18:44.144Z,41
2017-05-28T06:19:52.228Z,41
2017-05-28T06:21:00.314Z,41
2017-05-28T06:22:08.409Z,40
2017-05-28T06:23:17.177Z,40
2017-05-28T06:24:24.574Z,40
2017-05-28T06:25:32.660Z,41
2017-05-28T06:26:40.745Z,40
2017-05-28T06:27:48.833Z,40
2017-05-28T06:28:56.921Z,40
2017-05-28T06:30:05.095Z,41
2017-05-28T06:31:13.093Z,40
2017-05-28T06:32:21.242Z,40
2017-05-28T06:33:29.264Z,40
2017-05-28T06:34:37.358Z,41
2017-05-28T06:35:45.520Z,41
2017-05-28T06:36:53.531Z,41
2017-05-28T06:38:01.608Z,41
2017-05-28T06:39:09.693Z,40
2017-05-28T06:40:17.793Z,40
2017-05-28T06:41:25.879Z,41
2017-05-28T06:42:33.953Z,41
2017-05-28T06:43:42.040Z,41
2017-05-28T06:44:50.127Z,40
2017-05-28T06:45:58.213Z,40
2017-05-28T06:47:06.297Z,40
2017-05-28T06:48:14.383Z,40
2017-05-28T06:49:22.472Z,40
2017-05-28T06:50:31.236Z,41
2017-05-28T06:51:38.643Z,41
2017-05-28T06:52:46.733Z,40
2017-05-28T06:53:54.818Z,40
2017-05-28T06:55:02.906Z,40
2017-05-28T06:56:11.113Z,40
2017-05-28T06:57:19.571Z,40
2017-05-28T06:58:27.526Z,40
2017-05-28T06:59:35.406Z,41
2017-05-28T07:00:43.335Z,41
2017-05-28T07:01:51.525Z,41
2017-05-28T07:02:59.585Z,41
2017-05-28T07:04:07.596Z,40
2017-05-28T07:05:15.684Z,40
2017-05-28T07:06:23.767Z,41
2017-05-28T07:07:31.853Z,40
2017-05-28T07:08:39.941Z,40
2017-05-28T07:09:48.031Z,40
2017-05-28T07:10:56.120Z,40
2017-05-28T07:12:04.203Z,40
2017-05-28T07:13:12.292Z,40
2017-05-28T07:14:20.378Z,40
2017-05-28T07:15:28.463Z,40
2017-05-28T07:16:36.549Z,40
2017-05-28T07:17:44.636Z,40
2017-05-28T07:18:52.724Z,40
2017-05-28T07:20:00.817Z,40
2017-05-28T07:21:08.904Z,40
2017-05-28T07:22:16.989Z,40
2017-05-28T07:23:25.075Z,40
2017-05-28T07:24:33.161Z,40
2017-05-28T07:25:41.249Z,40
2017-05-28T07:26:49.336Z,40
2017-05-28T07:27:57.474Z,40
2017-05-28T07:29:05.509Z,40
2017-05-28T07:30:13.597Z,40
2017-05-28T07:31:21.684Z,40
2017-05-28T07:32:29.772Z,40
2017-05-28T07:33:37.856Z,40
2017-05-28T07:34:45.943Z,40
2017-05-28T07:35:54.038Z,40
2017-05-28T07:37:02.152Z,40
2017-05-28T07:38:10.363Z,40
2017-05-28T07:39:18.296Z,40
2017-05-28T07:40:26.384Z,39
2017-05-28T07:41:34.473Z,40
2017-05-28T07:42:42.568Z,40
2017-05-28T07:43:50.697Z,40
2017-05-28T07:44:58.868Z,40
2017-05-28T07:46:06.820Z,40
2017-05-28T07:47:14.904Z,40
2017-05-28T07:48:22.992Z,40
2017-05-28T07:49:31.081Z,40
2017-05-28T07:50:39.173Z,40
2017-05-28T07:51:47.257Z,40
2017-05-28T07:52:55.339Z,40
2017-05-28T07:54:03.437Z,40
2017-05-28T07:55:11.514Z,40
2017-05-28T07:56:19.601Z,41
2017-05-28T07:57:27.690Z,40
2017-05-28T07:58:35.777Z,40
2017-05-28T07:59:43.865Z,40
2017-05-28T08:00:51.958Z,40
2017-05-28T08:02:00.045Z,40
2017-05-28T08:03:08.130Z,40
2017-05-28T08:04:16.220Z,40
2017-05-28T08:05:24.308Z,40
2017-05-28T08:06:32.395Z,40
2017-05-28T08:07:40.483Z,41
2017-05-28T08:08:48.571Z,41
2017-05-28T08:09:56.656Z,41
2017-05-28T08:11:04.751Z,41
2017-05-28T08:12:12.829Z,40
2017-05-28T08:13:20.918Z,41
2017-05-28T08:14:29.007Z,41
2017-05-28T08:15:37.096Z,41
2017-05-28T08:16:45.180Z,41
2017-05-28T08:17:53.267Z,41
2017-05-28T08:19:01.446Z,41
2017-05-28T08:20:09.472Z,41
2017-05-28T08:21:17.617Z,41
2017-05-28T08:22:25.704Z,41
2017-05-28T08:23:33.789Z,41
2017-05-28T08:24:41.890Z,41
2017-05-28T08:25:49.963Z,41
2017-05-28T08:26:58.066Z,41
2017-05-28T08:28:06.135Z,41
2017-05-28T08:29:14.226Z,41
2017-05-28T08:30:22.308Z,41
2017-05-28T08:31:30.315Z,41
2017-05-28T08:32:38.402Z,41
2017-05-28T08:33:46.586Z,41
2017-05-28T08:34:54.645Z,41
2017-05-28T08:36:02.732Z,41
2017-05-28T08:37:10.865Z,41
2017-05-28T08:38:18.838Z,41
2017-05-28T08:39:26.925Z,41
2017-05-28T08:40:35.015Z,41
2017-05-28T08:41:43.103Z,41
2017-05-28T08:42:51.219Z,41
2017-05-28T08:43:59.396Z,41
2017-05-28T08:45:07.367Z,41
2017-05-28T08:46:15.451Z,41
2017-05-28T08:47:23.537Z,41
2017-05-28T08:48:31.626Z,41
2017-05-28T08:49:39.712Z,41
2017-05-28T08:50:47.798Z,41
2017-05-28T08:51:55.886Z,41
2017-05-28T08:53:03.972Z,41
2017-05-28T08:54:12.060Z,41
2017-05-28T08:55:20.148Z,41
2017-05-28T08:56:28.236Z,41
2017-05-28T08:57:36.325Z,41
2017-05-28T08:58:44.411Z,41
2017-05-28T08:59:52.500Z,43
2017-05-28T09:01:00.584Z,44
2017-05-28T09:02:08.673Z,44
2017-05-28T09:03:16.763Z,44
2017-05-28T09:04:24.849Z,44
2017-05-28T09:05:32.936Z,43
2017-05-28T09:06:41.024Z,43
2017-05-28T09:07:49.112Z,43
2017-05-28T09:08:57.223Z,43
2017-05-28T09:10:05.287Z,43
2017-05-28T09:11:13.373Z,43
2017-05-28T09:12:21.469Z,43
2017-05-28T09:13:29.557Z,43
2017-05-28T09:14:37.636Z,43
2017-05-28T09:15:45.722Z,43
2017-05-28T09:16:53.811Z,43
2017-05-28T09:18:01.902Z,43
2017-05-28T09:19:09.988Z,43
2017-05-28T09:20:18.075Z,42
2017-05-28T09:21:26.161Z,43
2017-05-28T09:22:34.250Z,42
2017-05-28T09:23:42.336Z,42
2017-05-28T09:24:50.423Z,42
2017-05-28T09:25:58.514Z,43
2017-05-28T09:27:06.602Z,43
2017-05-28T09:28:14.689Z,42
2017-05-28T09:29:22.775Z,42
2017-05-28T09:30:30.861Z,43
2017-05-28T09:31:38.956Z,42
2017-05-28T09:32:47.037Z,43
2017-05-28T09:33:55.123Z,43
2017-05-28T09:35:03.217Z,43
2017-05-28T09:36:11.306Z,43
2017-05-28T09:37:19.393Z,42
2017-05-28T09:38:27.481Z,42
2017-05-28T09:39:35.566Z,42
2017-05-28T09:40:43.655Z,42
2017-05-28T09:41:51.745Z,42
2017-05-28T09:42:59.832Z,42
2017-05-28T09:44:07.953Z,42
2017-05-28T09:45:16.006Z,42
2017-05-28T09:46:24.102Z,42
2017-05-28T09:47:32.182Z,42
2017-05-28T09:48:40.271Z,42
2017-05-28T09:49:48.355Z,42
2017-05-28T09:50:56.443Z,43
2017-05-28T09:52:04.533Z,42
2017-05-28T09:53:12.619Z,42
2017-05-28T09:54:20.710Z,42
2017-05-28T09:55:28.796Z,42
2017-05-28T09:56:36.884Z,42
2017-05-28T09:57:44.996Z,42
2017-05-28T09:58:53.073Z,42
2017-05-28T10:00:01.216Z,42
2017-05-28T10:01:09.260Z,42
2017-05-28T10:02:17.323Z,42
2017-05-28T10:03:25.410Z,42
2017-05-28T10:04:33.497Z,42
2017-05-28T10:05:41.596Z,43
2017-05-28T10:06:49.674Z,42
2017-05-28T10:07:57.761Z,42
2017-05-28T10:09:05.851Z,43
2017-05-28T10:10:13.937Z,43
2017-05-28T10:11:22.024Z,43
2017-05-28T10:12:30.115Z,42
2017-05-28T10:13:38.210Z,42
2017-05-28T10:14:46.290Z,43
2017-05-28T10:15:54.380Z,43
2017-05-28T10:17:02.465Z,43
2017-05-28T10:18:10.590Z,43
2017-05-28T10:19:18.642Z,42
2017-05-28T10:20:26.728Z,43
2017-05-28T10:21:34.819Z,42
2017-05-28T10:22:42.906Z,42
2017-05-28T10:23:50.993Z,43
2017-05-28T10:24:59.085Z,43
2017-05-28T10:26:07.170Z,43
2017-05-28T10:27:15.265Z,43
2017-05-28T10:28:23.406Z,43
2017-05-28T10:29:31.441Z,43
2017-05-28T10:30:39.533Z,43
2017-05-28T10:31:47.625Z,42
2017-05-28T10:32:55.716Z,43
2017-05-28T10:34:03.798Z,43
2017-05-28T10:35:11.957Z,43
2017-05-28T10:36:19.973Z,43
2017-05-28T10:37:28.070Z,43
2017-05-28T10:38:36.156Z,42
2017-05-28T10:39:44.292Z,43
2017-05-28T10:40:52.333Z,42
2017-05-28T10:42:00.425Z,43
2017-05-28T10:43:08.507Z,43
2017-05-28T10:44:16.597Z,43
2017-05-28T10:45:24.690Z,43
2017-05-28T10:46:32.779Z,42
2017-05-28T10:47:40.860Z,43
2017-05-28T10:48:48.948Z,43
2017-05-28T10:49:57.037Z,43
2017-05-28T10:51:05.126Z,43
2017-05-28T10:52:13.215Z,42
2017-05-28T10:53:21.302Z,43
2017-05-28T10:54:29.392Z,43
2017-05-28T10:55:37.478Z,43
2017-05-28T10:56:45.614Z,42
2017-05-28T10:57:53.655Z,42
2017-05-28T10:59:01.742Z,42
2017-05-28T11:00:09.834Z,42
2017-05-28T11:01:17.918Z,43
2017-05-28T11:02:26.022Z,43
2017-05-28T11:03:34.094Z,43
2017-05-28T11:04:42.186Z,43
2017-05-28T11:05:50.272Z,43
2017-05-28T11:06:58.364Z,43
2017-05-28T11:08:06.450Z,43
2017-05-28T11:09:14.538Z,43
2017-05-28T11:10:22.628Z,43
2017-05-28T11:11:30.717Z,43
2017-05-28T11:12:38.803Z,43
2017-05-28T11:13:46.943Z,43
2017-05-28T11:14:54.989Z,43
2017-05-28T11:16:03.076Z,43
2017-05-28T11:17:11.170Z,43
2017-05-28T11:18:19.262Z,43
2017-05-28T11:19:27.351Z,43
2017-05-28T11:20:35.439Z,43
2017-05-28T11:21:43.527Z,43
2017-05-28T11:22:51.618Z,43
2017-05-28T11:23:59.702Z,42
2017-05-28T11:25:07.790Z,43
2017-05-28T11:26:15.879Z,43
2017-05-28T11:27:23.969Z,43
2017-05-28T11:28:32.058Z,43
2017-05-28T11:29:40.145Z,42
2017-05-28T11:30:48.234Z,43
2017-05-28T11:31:56.324Z,42
2017-05-28T11:33:04.412Z,43
2017-05-28T11:34:12.499Z,43
2017-05-28T11:35:20.588Z,43
2017-05-28T11:36:28.677Z,42
2017-05-28T11:37:36.768Z,42
2017-05-28T11:38:44.859Z,42
2017-05-28T11:39:52.946Z,42
2017-05-28T11:41:01.031Z,42
2017-05-28T11:42:09.121Z,42
2017-05-28T11:43:17.212Z,42
2017-05-28T11:44:25.301Z,42
2017-05-28T11:45:33.390Z,42
2017-05-28T11:46:41.479Z,42
2017-05-28T11:47:49.597Z,42
2017-05-28T11:48:57.657Z,42
2017-05-28T11:50:05.866Z,42
2017-05-28T11:51:13.829Z,42
2017-05-28T11:52:21.920Z,42
2017-05-28T11:53:30.010Z,42
2017-05-28T11:54:38.101Z,42
2017-05-28T11:55:46.187Z,42
2017-05-28T11:56:54.275Z,42
2017-05-28T11:58:02.365Z,42
2017-05-28T11:59:10.451Z,42
2017-05-28T12:00:18.541Z,42
2017-05-28T12:01:26.628Z,42
2017-05-28T12:02:34.717Z,42
2017-05-28T12:03:42.810Z,42
2017-05-28T12:04:50.898Z,42
2017-05-28T12:05:58.986Z,42
2017-05-28T12:07:07.074Z,42
2017-05-28T12:08:15.163Z,42
2017-05-28T12:09:23.251Z,42
2017-05-28T12:10:31.340Z,42
2017-05-28T12:11:39.428Z,42
2017-05-28T12:12:47.517Z,42
2017-05-28T12:13:55.606Z,42
2017-05-28T12:15:03.694Z,42
2017-05-28T12:16:11.875Z,42
2017-05-28T12:17:19.894Z,42
2017-05-28T12:18:27.964Z,42
2017-05-28T12:19:36.055Z,42
2017-05-28T12:20:44.145Z,42
2017-05-28T12:21:52.232Z,42
2017-05-28T12:23:00.322Z,42
2017-05-28T12:24:08.409Z,42
2017-05-28T12:25:16.497Z,42
2017-05-28T12:26:24.591Z,42
2017-05-28T12:27:32.683Z,42
2017-05-28T12:28:40.772Z,42
2017-05-28T12:29:48.860Z,42
2017-05-28T12:30:56.953Z,42
2017-05-28T12:32:05.039Z,42
2017-05-28T12:33:13.126Z,42
2017-05-28T12:34:21.214Z,42
2017-05-28T12:35:29.312Z,42
2017-05-28T12:36:37.392Z,42
2017-05-28T12:37:45.480Z,42
2017-05-28T12:38:53.569Z,42
2017-05-28T12:40:01.659Z,42
2017-05-28T12:41:09.751Z,42
2017-05-28T12:42:17.837Z,42
2017-05-28T12:43:25.927Z,42
2017-05-28T12:44:34.016Z,42
2017-05-28T12:45:42.107Z,42
2017-05-28T12:46:50.192Z,42
2017-05-28T12:47:58.291Z,42
2017-05-28T12:49:06.379Z,42
2017-05-28T12:50:14.459Z,42
2017-05-28T12:51:22.547Z,42
2017-05-28T12:52:30.639Z,42
2017-05-28T12:53:38.726Z,42
2017-05-28T12:54:46.815Z,42
2017-05-28T12:55:54.900Z,42
2017-05-28T12:57:02.991Z,42
2017-05-28T12:58:11.081Z,42
2017-05-28T12:59:19.171Z,42
2017-05-28T13:00:27.261Z,42
2017-05-28T13:01:35.350Z,42
2017-05-28T13:02:43.438Z,42
2017-05-28T13:03:51.527Z,42
2017-05-28T13:04:59.614Z,42
2017-05-28T13:06:07.702Z,42
2017-05-28T13:07:15.793Z,42
2017-05-28T13:08:23.881Z,41
2017-05-28T13:09:31.971Z,41
2017-05-28T13:10:40.062Z,41
2017-05-28T13:11:48.150Z,42
2017-05-28T13:12:56.239Z,42
2017-05-28T13:14:04.327Z,42
2017-05-28T13:15:12.430Z,41
2017-05-28T13:16:20.516Z,42
2017-05-28T13:17:28.607Z,42
2017-05-28T13:18:36.704Z,42
2017-05-28T13:19:44.791Z,42
2017-05-28T13:20:52.880Z,42
2017-05-28T13:22:00.979Z,42
2017-05-28T13:23:09.058Z,42
2017-05-28T13:24:17.147Z,41
2017-05-28T13:25:25.236Z,41
2017-05-28T13:26:33.331Z,41
2017-05-28T13:27:41.414Z,41
2017-05-28T13:28:49.502Z,41
2017-05-28T13:29:57.591Z,41
2017-05-28T13:31:05.681Z,41
2017-05-28T13:32:13.769Z,41
2017-05-28T13:33:21.859Z,41
2017-05-28T13:34:29.949Z,41
2017-05-28T13:35:38.037Z,41
2017-05-28T13:36:46.126Z,41
2017-05-28T13:37:54.216Z,41
2017-05-28T13:39:02.300Z,41
2017-05-28T13:40:10.396Z,41
2017-05-28T13:41:18.485Z,41
2017-05-28T13:42:26.621Z,40
2017-05-28T13:43:34.661Z,41
2017-05-28T13:44:42.752Z,41
2017-05-28T13:45:50.842Z,41
2017-05-28T13:46:58.932Z,41
2017-05-28T13:48:07.026Z,41
2017-05-28T13:49:15.113Z,41
2017-05-28T13:50:23.208Z,41
2017-05-28T13:51:31.292Z,42
2017-05-28T13:52:39.382Z,41
2017-05-28T13:53:47.470Z,41
2017-05-28T13:54:55.561Z,41
2017-05-28T13:56:03.651Z,41
2017-05-28T13:57:11.741Z,41
2017-05-28T13:58:19.833Z,41
2017-05-28T13:59:27.918Z,41
2017-05-28T14:00:36.008Z,41
2017-05-28T14:01:44.094Z,41
2017-05-28T14:02:52.185Z,41
2017-05-28T14:04:00.274Z,41
2017-05-28T14:05:08.363Z,41
2017-05-28T14:06:16.454Z,41
2017-05-28T14:07:24.543Z,41
2017-05-28T14:08:32.631Z,41
2017-05-28T14:09:40.717Z,41
2017-05-28T14:10:48.832Z,41
2017-05-28T14:11:56.896Z,41
2017-05-28T14:13:04.991Z,41
2017-05-28T14:14:13.075Z,42
2017-05-28T14:15:21.171Z,42
2017-05-28T14:16:29.314Z,42
2017-05-28T14:17:37.348Z,42
2017-05-28T14:18:45.890Z,42
2017-05-28T14:19:53.679Z,42
2017-05-28T14:21:01.944Z,42
2017-05-28T14:22:09.749Z,42
2017-05-28T14:23:17.879Z,42
2017-05-28T14:24:25.985Z,42
2017-05-28T14:25:33.974Z,42
2017-05-28T14:26:42.225Z,43
2017-05-28T14:27:50.409Z,43
2017-05-28T14:28:58.241Z,43
2017-05-28T14:30:06.609Z,43
2017-05-28T14:31:14.837Z,44
2017-05-28T14:32:23.450Z,44
2017-05-28T14:33:30.888Z,44
2017-05-28T14:34:38.689Z,44
2017-05-28T14:35:46.778Z,44
2017-05-28T14:36:54.967Z,44
2017-05-28T14:38:02.983Z,44
2017-05-28T14:39:11.045Z,44
2017-05-28T14:40:19.134Z,44
2017-05-28T14:41:27.524Z,44
2017-05-28T14:42:35.314Z,44
2017-05-28T14:43:43.402Z,45
2017-05-28T14:44:51.491Z,45
2017-05-28T14:45:59.581Z,45
2017-05-28T14:47:07.668Z,44
2017-05-28T14:48:15.758Z,44
2017-05-28T14:49:23.845Z,44
2017-05-28T14:50:31.933Z,44
2017-05-28T14:51:40.030Z,44
2017-05-28T14:52:48.120Z,44
2017-05-28T14:53:56.203Z,44
2017-05-28T14:55:04.308Z,44
2017-05-28T14:56:12.381Z,44
2017-05-28T14:57:20.472Z,44
2017-05-28T14:58:28.559Z,45
2017-05-28T14:59:36.654Z,44
2017-05-28T15:00:44.738Z,44
2017-05-28T15:01:52.829Z,44
2017-05-28T15:03:00.918Z,44
2017-05-28T15:04:09.008Z,44
2017-05-28T15:05:17.096Z,44
2017-05-28T15:06:25.183Z,44
2017-05-28T15:07:33.273Z,44
2017-05-28T15:08:41.367Z,44
2017-05-28T15:09:49.454Z,44
2017-05-28T15:10:57.604Z,44
2017-05-28T15:12:05.682Z,44
2017-05-28T15:13:13.728Z,44
2017-05-28T15:14:21.815Z,44
2017-05-28T15:15:29.909Z,44
2017-05-28T15:16:37.992Z,44
2017-05-28T15:17:46.081Z,44
2017-05-28T15:18:54.173Z,44
2017-05-28T15:20:02.259Z,44
2017-05-28T15:21:10.351Z,44
2017-05-28T15:22:18.439Z,44
2017-05-28T15:23:26.527Z,44
2017-05-28T15:24:34.642Z,43
2017-05-28T15:25:42.711Z,44
2017-05-28T15:26:50.801Z,43
2017-05-28T15:27:58.888Z,43
2017-05-28T15:29:06.979Z,43
2017-05-28T15:30:15.066Z,43
2017-05-28T15:31:23.161Z,43
2017-05-28T15:32:31.246Z,43
2017-05-28T15:33:39.336Z,43
2017-05-28T15:34:47.424Z,43
2017-05-28T15:35:55.512Z,43
2017-05-28T15:37:03.603Z,43
2017-05-28T15:38:11.691Z,43
2017-05-28T15:39:19.836Z,43
2017-05-28T15:40:27.868Z,43
2017-05-28T15:41:35.957Z,43
2017-05-28T15:42:44.047Z,43
2017-05-28T15:43:52.135Z,43
2017-05-28T15:45:00.226Z,43
2017-05-28T15:46:08.317Z,43
2017-05-28T15:47:16.408Z,43
2017-05-28T15:48:24.495Z,43
2017-05-28T15:49:32.591Z,43
2017-05-28T15:50:40.679Z,43
2017-05-28T15:51:48.773Z,43
2017-05-28T15:52:56.859Z,43
2017-05-28T15:54:04.945Z,43
2017-05-28T15:55:13.037Z,43
2017-05-28T15:56:21.126Z,43
2017-05-28T15:57:29.218Z,43
2017-05-28T15:58:37.366Z,43
2017-05-28T15:59:45.401Z,44
2017-05-28T16:00:53.481Z,44
2017-05-28T16:02:01.570Z,43
2017-05-28T16:03:09.660Z,44
2017-05-28T16:04:17.749Z,44
2017-05-28T16:05:25.837Z,44
2017-05-28T16:06:33.926Z,44
2017-05-28T16:07:42.015Z,43
2017-05-28T16:08:50.110Z,43
2017-05-28T16:09:58.193Z,43
2017-05-28T16:11:06.283Z,44